createdAt,value
2022-10-18T00:00:47.892Z,16.48
2022-10-18T00:03:14.905Z,11.30
2022-10-18T00:05:41.928Z,12.85
2022-10-18T00:08:08.996Z,9.38
2022-10-18T00:10:35.973Z,11.13
2022-10-18T00:13:03.029Z,11.95
2022-10-18T00:15:30.018Z,12.63
2022-10-18T00:17:57.056Z,14.80
2022-10-18T00:20:24.115Z,14.32
2022-10-18T00:22:51.096Z,15.10
2022-10-18T00:25:18.604Z,10.43
2022-10-18T00:27:45.679Z,11.07
2022-10-18T00:30:12.660Z,12.82
2022-10-18T00:32:41.255Z,11.73
2022-10-18T00:35:09.477Z,10.68
2022-10-18T00:37:36.488Z,10.10
2022-10-18T00:40:04.126Z,10.48
2022-10-18T00:42:34.705Z,11.23
2022-10-18T00:45:24.396Z,11.18
2022-10-18T00:47:57.107Z,12.73
2022-10-18T00:50:26.580Z,10.80
2022-10-18T00:52:58.551Z,10.65
2022-10-18T00:55:27.063Z,11.68
2022-10-18T00:57:55.533Z,11.20
2022-10-18T01:00:22.535Z,15.30
2022-10-18T01:02:49.948Z,12.85
2022-10-18T01:05:18.850Z,15.77
2022-10-18T01:08:23.135Z,10.88
2022-10-18T01:10:55.165Z,10.50
2022-10-18T01:13:31.403Z,11.00
2022-10-18T01:16:10.431Z,13.02
2022-10-18T01:18:50.286Z,11.75
2022-10-18T01:21:28.033Z,10.70
2022-10-18T01:24:27.759Z,10.77
2022-10-18T01:27:33.327Z,11.48
2022-10-18T01:30:37.595Z,11.00
2022-10-18T01:33:28.807Z,18.80
2022-10-18T01:36:19.810Z,10.00
2022-10-18T01:38:50.970Z,9.20
2022-10-18T01:41:20.143Z,11.80
2022-10-18T01:43:50.805Z,11.38
2022-10-18T01:46:21.904Z,14.27
2022-10-18T01:48:49.322Z,10.55
2022-10-18T01:51:32.199Z,14.13
2022-10-18T01:54:00.365Z,11.60
2022-10-18T01:56:31.889Z,10.27
2022-10-18T01:59:30.305Z,11.15
2022-10-18T02:02:11.296Z,12.02
2022-10-18T02:04:38.409Z,9.65
2022-10-18T02:07:49.004Z,13.25
2022-10-18T02:10:50.294Z,9.85
2022-10-18T02:13:20.993Z,34.13
2022-10-18T02:15:52.453Z,11.60
2022-10-18T02:18:25.647Z,11.73
2022-10-18T02:20:54.614Z,10.63
2022-10-18T02:23:25.786Z,11.05
2022-10-18T02:25:53.649Z,11.77
2022-10-18T02:28:21.870Z,13.15
2022-10-18T02:31:28.664Z,12.23
2022-10-18T02:34:13.349Z,15.13
2022-10-18T02:36:47.915Z,10.75
2022-10-18T02:39:19.418Z,11.02
2022-10-18T02:41:46.890Z,12.48
2022-10-18T02:44:13.876Z,11.18
2022-10-18T02:46:41.545Z,16.60
2022-10-18T02:49:08.494Z,10.77
2022-10-18T02:51:35.548Z,10.90
2022-10-18T02:54:02.532Z,10.90
2022-10-18T02:56:29.547Z,10.18
2022-10-18T02:58:56.588Z,10.52
2022-10-18T03:01:23.601Z,12.25
2022-10-18T03:03:50.649Z,10.80
2022-10-18T03:06:17.615Z,10.38
2022-10-18T03:08:44.668Z,9.57
2022-10-18T03:11:11.624Z,10.32
2022-10-18T03:13:38.640Z,12.80
2022-10-18T03:16:05.801Z,15.00
2022-10-18T03:18:32.808Z,16.08
2022-10-18T03:20:59.848Z,10.93
2022-10-18T03:23:26.813Z,11.02
2022-10-18T03:25:53.916Z,9.45
2022-10-18T03:28:21.543Z,12.35
2022-10-18T03:30:48.499Z,10.90
2022-10-18T03:33:15.632Z,13.27
2022-10-18T03:35:42.584Z,11.07
2022-10-18T03:38:09.608Z,12.60
2022-10-18T03:40:36.607Z,13.07
2022-10-18T03:43:03.645Z,16.10
2022-10-18T03:45:31.528Z,18.95
2022-10-18T03:47:58.795Z,23.02
2022-10-18T03:50:25.854Z,15.82
2022-10-18T03:52:54.338Z,17.50
2022-10-18T03:55:21.875Z,30.05
2022-10-18T03:57:48.864Z,18.88
2022-10-18T04:00:15.840Z,18.30
2022-10-18T04:02:42.768Z,17.70
2022-10-18T04:05:10.065Z,18.77
2022-10-18T04:10:09.139Z,17.95
2022-10-18T04:12:36.120Z,21.85
2022-10-18T04:15:03.770Z,26.83
2022-10-18T04:17:31.017Z,24.35
2022-10-18T04:19:58.559Z,22.65
2022-10-18T04:22:25.561Z,22.90
2022-10-18T04:24:53.532Z,19.75
2022-10-18T04:27:20.566Z,23.40
2022-10-18T04:29:47.717Z,23.73
2022-10-18T04:32:14.778Z,23.63
2022-10-18T04:37:13.689Z,18.88
2022-10-18T04:39:40.678Z,19.52
2022-10-18T04:42:07.760Z,19.00
2022-10-18T04:44:34.731Z,16.67
2022-10-18T04:47:01.673Z,22.00
2022-10-18T04:49:28.631Z,45.22
2022-10-18T04:51:55.602Z,35.30
2022-10-18T04:54:23.987Z,52.83
2022-10-18T04:56:54.104Z,60.65
2022-10-18T04:59:21.324Z,36.80
2022-10-18T05:01:48.453Z,35.30
2022-10-18T05:04:15.602Z,40.42
2022-10-18T05:06:42.551Z,41.38
2022-10-18T05:09:09.562Z,47.50
2022-10-18T05:11:36.593Z,39.42
2022-10-18T05:14:03.752Z,61.85
2022-10-18T05:16:32.992Z,45.17
2022-10-18T05:19:00.800Z,36.63
2022-10-18T05:21:27.728Z,37.78
2022-10-18T05:23:58.117Z,44.33
2022-10-18T05:26:25.084Z,53.00
2022-10-18T05:28:52.137Z,36.88
2022-10-18T05:31:19.129Z,46.30
2022-10-18T05:33:46.078Z,58.38
2022-10-18T05:36:13.044Z,35.33
2022-10-18T05:38:43.113Z,46.00
2022-10-18T05:41:11.426Z,50.38
2022-10-18T05:43:39.799Z,67.93
2022-10-18T05:46:13.708Z,52.63
2022-10-18T05:48:43.475Z,44.17
2022-10-18T05:51:10.434Z,51.45
2022-10-18T05:53:38.193Z,45.08
2022-10-18T05:56:06.443Z,34.25
2022-10-18T05:58:34.283Z,39.75
2022-10-18T06:01:05.347Z,48.47
2022-10-18T06:03:33.197Z,42.03
2022-10-18T06:06:06.198Z,54.00
2022-10-18T06:08:33.586Z,49.58
2022-10-18T06:11:00.658Z,64.82
2022-10-18T06:13:29.978Z,45.08
2022-10-18T06:15:58.292Z,59.33
2022-10-18T06:18:25.352Z,35.33
2022-10-18T06:21:00.095Z,37.08
2022-10-18T06:23:30.091Z,34.17
2022-10-18T06:26:06.548Z,31.30
2022-10-18T06:28:36.329Z,38.58
2022-10-18T06:31:04.541Z,34.42
2022-10-18T06:33:33.460Z,40.20
2022-10-18T06:36:05.272Z,31.85
2022-10-18T06:38:32.542Z,31.48
2022-10-18T06:41:00.592Z,30.83
2022-10-18T06:43:27.627Z,48.72
2022-10-18T06:45:55.213Z,45.67
2022-10-18T06:48:23.510Z,32.92
2022-10-18T06:51:00.531Z,38.50
2022-10-18T06:53:29.894Z,31.67
2022-10-18T06:56:08.789Z,41.53
2022-10-18T06:58:36.061Z,54.75
2022-10-18T07:01:11.725Z,35.63
2022-10-18T07:03:39.110Z,36.08
2022-10-18T07:06:09.012Z,44.80
2022-10-18T07:08:37.121Z,47.50
2022-10-18T07:11:05.055Z,36.03
2022-10-18T07:13:33.613Z,37.55
2022-10-18T07:16:06.810Z,53.60
2022-10-18T07:18:35.804Z,51.47
2022-10-18T07:21:05.099Z,31.50
2022-10-18T07:23:37.414Z,33.28
2022-10-18T07:26:15.145Z,36.17
2022-10-18T07:28:43.606Z,36.53
2022-10-18T07:31:12.149Z,32.00
2022-10-18T07:33:39.973Z,39.30
2022-10-18T07:36:09.022Z,33.78
2022-10-18T07:38:36.941Z,32.60
2022-10-18T07:41:06.858Z,32.58
2022-10-18T07:43:35.236Z,57.95
2022-10-18T07:46:04.852Z,37.83
2022-10-18T07:48:32.367Z,42.95
2022-10-18T07:51:01.459Z,38.45
2022-10-18T07:53:29.828Z,38.40
2022-10-18T07:56:08.598Z,44.05
2022-10-18T07:58:36.735Z,40.03
2022-10-18T08:01:08.552Z,33.65
2022-10-18T08:03:37.001Z,30.50
2022-10-18T08:06:04.512Z,35.20
2022-10-18T08:08:32.053Z,31.95
2022-10-18T08:11:31.323Z,28.98
2022-10-18T08:13:58.513Z,33.42
2022-10-18T08:16:28.495Z,29.00
2022-10-18T08:18:58.703Z,29.45
2022-10-18T08:21:26.156Z,30.55
2022-10-18T08:23:54.065Z,32.78
2022-10-18T08:26:23.122Z,31.85
2022-10-18T08:28:54.291Z,36.83
2022-10-18T08:31:31.170Z,32.85
2022-10-18T08:33:58.243Z,36.38
2022-10-18T08:36:25.397Z,29.98
2022-10-18T08:38:52.366Z,34.40
2022-10-18T08:41:37.533Z,29.02
2022-10-18T08:44:24.384Z,32.70
2022-10-18T08:47:19.221Z,32.58
2022-10-18T08:49:58.267Z,29.38
2022-10-18T08:52:31.427Z,30.27
2022-10-18T08:55:03.218Z,31.92
2022-10-18T08:57:32.730Z,29.65
2022-10-18T09:00:06.417Z,50.63
2022-10-18T09:03:01.448Z,29.90
2022-10-18T09:05:46.761Z,29.15
2022-10-18T09:08:16.786Z,27.67
2022-10-18T09:11:08.449Z,35.03
2022-10-18T09:14:02.450Z,27.58
2022-10-18T09:16:50.383Z,29.30
2022-10-18T09:19:55.182Z,26.08
2022-10-18T09:22:38.072Z,29.95
2022-10-18T09:25:43.061Z,31.20
2022-10-18T09:28:31.317Z,29.80
2022-10-18T09:31:16.841Z,33.05
2022-10-18T09:33:54.041Z,32.03
2022-10-18T09:36:35.771Z,28.30
2022-10-18T09:39:18.693Z,37.53
2022-10-18T09:42:00.343Z,47.47
2022-10-18T09:44:42.079Z,54.13
2022-10-18T09:47:21.883Z,37.03
2022-10-18T09:49:57.847Z,39.42
2022-10-18T09:52:44.597Z,50.40
2022-10-18T09:55:26.758Z,56.38
2022-10-18T09:58:05.847Z,51.67
2022-10-18T10:00:38.755Z,31.95
2022-10-18T10:03:15.126Z,30.73
2022-10-18T10:05:45.425Z,24.20
2022-10-18T10:08:12.475Z,35.47
2022-10-18T10:10:45.735Z,31.15
2022-10-18T10:13:23.101Z,27.85
2022-10-18T10:15:56.922Z,30.10
2022-10-18T10:18:33.944Z,28.33
2022-10-18T10:21:07.216Z,27.35
2022-10-18T10:23:58.814Z,33.38
2022-10-18T10:26:29.187Z,33.08
2022-10-18T10:28:56.229Z,31.33
2022-10-18T10:31:32.671Z,24.85
2022-10-18T10:34:06.131Z,27.92
2022-10-18T10:36:35.254Z,39.53
2022-10-18T10:39:12.692Z,32.15
2022-10-18T10:41:41.634Z,28.63
2022-10-18T10:44:20.826Z,24.20
2022-10-18T10:46:50.379Z,29.33
2022-10-18T10:49:39.162Z,30.45
2022-10-18T10:52:08.722Z,25.65
2022-10-18T10:54:50.338Z,27.83
2022-10-18T10:57:28.395Z,30.85
2022-10-18T10:59:58.379Z,28.90
2022-10-18T11:02:36.932Z,31.40
2022-10-18T11:05:29.460Z,28.50
2022-10-18T11:08:01.089Z,33.00
2022-10-18T11:10:34.889Z,30.63
2022-10-18T11:13:23.444Z,37.13
2022-10-18T11:15:55.361Z,29.90
2022-10-18T11:18:35.246Z,33.50
2022-10-18T11:21:23.969Z,31.38
2022-10-18T11:23:51.302Z,27.08
2022-10-18T11:26:40.905Z,25.85
2022-10-18T11:29:28.424Z,34.33
2022-10-18T11:32:28.544Z,35.20
2022-10-18T11:35:20.022Z,34.70
2022-10-18T11:38:15.938Z,26.88
2022-10-18T11:41:09.621Z,29.42
2022-10-18T11:44:04.026Z,32.03
2022-10-18T11:46:50.597Z,29.93
2022-10-18T11:49:36.602Z,35.13
2022-10-18T11:52:10.806Z,33.90
2022-10-18T11:54:43.500Z,30.80
2022-10-18T11:57:19.263Z,32.60
2022-10-18T12:00:04.533Z,37.23
2022-10-18T12:02:53.561Z,30.03
2022-10-18T12:05:23.904Z,36.00
2022-10-18T12:07:58.629Z,44.57
2022-10-18T12:10:44.110Z,37.63
2022-10-18T12:13:24.368Z,34.70
2022-10-18T12:15:52.667Z,32.92
2022-10-18T12:18:23.407Z,37.03
2022-10-18T12:20:54.736Z,33.90
2022-10-18T12:23:36.694Z,38.30
2022-10-18T12:26:06.781Z,34.87
2022-10-18T12:28:47.279Z,35.70
2022-10-18T12:31:37.002Z,30.67
2022-10-18T12:34:15.970Z,32.93
2022-10-18T12:37:11.122Z,26.33
2022-10-18T12:42:57.719Z,32.27
2022-10-18T12:45:35.317Z,33.50
2022-10-18T12:48:07.708Z,33.27
2022-10-18T12:50:39.292Z,30.57
2022-10-18T12:53:12.550Z,34.37
2022-10-18T12:58:22.464Z,31.77
2022-10-18T13:00:49.407Z,32.97
2022-10-18T13:03:17.686Z,35.00
2022-10-18T13:05:55.886Z,29.87
2022-10-18T13:08:30.455Z,32.20
2022-10-18T13:11:11.884Z,27.63
2022-10-18T13:16:56.543Z,29.60
2022-10-18T13:20:02.834Z,30.37
2022-10-18T13:22:48.963Z,29.70
2022-10-18T13:25:52.893Z,30.57
2022-10-18T13:28:32.203Z,33.00
2022-10-18T13:31:23.189Z,31.10
2022-10-18T13:33:50.606Z,32.03
2022-10-18T13:36:22.572Z,34.40
2022-10-18T13:38:59.387Z,30.47
2022-10-18T13:41:31.429Z,28.20
2022-10-18T13:44:25.365Z,34.47
2022-10-18T13:46:52.343Z,29.67
2022-10-18T13:49:28.245Z,31.10
2022-10-18T13:52:21.165Z,30.87
2022-10-18T13:54:59.937Z,31.97
2022-10-18T13:57:38.689Z,33.30
2022-10-18T14:00:28.798Z,30.07
2022-10-18T14:03:26.618Z,34.83
2022-10-18T14:05:57.728Z,31.63
2022-10-18T14:08:53.201Z,31.03
2022-10-18T14:11:45.927Z,28.77
2022-10-18T14:14:13.498Z,28.83
2022-10-18T14:16:51.509Z,31.23
2022-10-18T14:19:30.790Z,33.13
2022-10-18T14:22:20.201Z,28.67
2022-10-18T14:24:51.637Z,45.00
2022-10-18T14:27:21.325Z,29.80
2022-10-18T14:29:50.251Z,29.90
2022-10-18T14:32:27.626Z,31.90
2022-10-18T14:35:04.884Z,32.20
2022-10-18T14:37:42.882Z,35.90
2022-10-18T14:40:30.133Z,33.00
2022-10-18T14:42:57.078Z,36.93
2022-10-18T14:45:24.713Z,32.67
2022-10-18T14:47:52.138Z,29.80
2022-10-18T14:50:30.631Z,29.00
2022-10-18T14:52:58.086Z,33.50
2022-10-18T14:55:28.910Z,30.33
2022-10-18T14:57:56.052Z,31.10
2022-10-18T15:00:43.940Z,36.40
2022-10-18T15:03:17.763Z,36.03
2022-10-18T15:05:59.732Z,39.20
2022-10-18T15:08:43.036Z,38.40
2022-10-18T15:11:14.452Z,33.20
2022-10-18T15:14:13.458Z,32.23
2022-10-18T15:16:41.254Z,30.33
2022-10-18T15:19:28.921Z,38.90
2022-10-18T15:22:31.364Z,43.60
2022-10-18T15:25:15.316Z,31.97
2022-10-18T15:27:49.436Z,35.00
2022-10-18T15:30:28.960Z,41.70
2022-10-18T15:33:01.771Z,32.03
2022-10-18T15:35:35.800Z,40.53
2022-10-18T15:38:16.497Z,34.37
2022-10-18T15:40:44.574Z,39.00
2022-10-18T15:43:23.710Z,31.17
2022-10-18T15:45:56.050Z,39.03
2022-10-18T15:48:34.077Z,33.10
2022-10-18T15:51:07.036Z,31.10
2022-10-18T15:53:42.076Z,38.93
2022-10-18T15:56:18.107Z,32.60
2022-10-18T15:58:47.362Z,32.70
2022-10-18T16:01:26.970Z,37.60
2022-10-18T16:06:26.290Z,39.67
2022-10-18T16:08:53.997Z,45.97
2022-10-18T16:11:26.101Z,46.23
2022-10-18T16:13:56.493Z,43.67
2022-10-18T16:16:28.878Z,39.60
2022-10-18T16:18:56.396Z,40.97
2022-10-18T16:21:27.114Z,41.20
2022-10-18T16:23:54.843Z,39.63
2022-10-18T16:26:23.198Z,36.53
2022-10-18T16:28:51.299Z,41.47
2022-10-18T16:31:23.353Z,39.13
2022-10-18T16:33:51.705Z,42.67
2022-10-18T16:36:22.434Z,38.93
2022-10-18T16:38:50.085Z,37.70
2022-10-18T16:41:17.152Z,32.43
2022-10-18T16:43:47.034Z,39.30
2022-10-18T16:46:27.461Z,35.13
2022-10-18T16:48:56.100Z,43.57
2022-10-18T16:51:23.741Z,53.50
2022-10-18T16:53:50.779Z,47.30
2022-10-18T16:56:21.219Z,48.93
2022-10-18T16:58:49.425Z,48.25
2022-10-18T17:01:19.941Z,40.83
2022-10-18T17:03:47.931Z,39.17
2022-10-18T17:06:28.134Z,45.60
2022-10-18T17:08:57.859Z,45.38
2022-10-18T17:11:27.097Z,41.07
2022-10-18T17:13:55.041Z,42.30
2022-10-18T17:19:03.792Z,37.97
2022-10-18T17:21:34.101Z,35.90
2022-10-18T17:24:06.248Z,41.35
2022-10-18T17:26:34.900Z,50.60
2022-10-18T17:29:07.018Z,65.57
2022-10-18T17:31:36.083Z,54.20
2022-10-18T17:34:05.215Z,50.17
2022-10-18T17:36:34.611Z,53.70
2022-10-18T17:39:02.673Z,46.95
2022-10-18T17:41:30.742Z,44.75
2022-10-18T17:43:58.537Z,95.13
2022-10-18T17:46:26.156Z,59.28
2022-10-18T17:48:54.776Z,76.20
2022-10-18T17:51:24.175Z,61.20
2022-10-18T17:53:51.635Z,65.80
2022-10-18T17:56:18.885Z,92.53
2022-10-18T17:58:47.620Z,77.07
2022-10-18T18:01:20.906Z,80.80
2022-10-18T18:03:49.675Z,78.65
2022-10-18T18:06:22.754Z,83.30
2022-10-18T18:08:51.507Z,70.55
2022-10-18T18:11:19.632Z,71.78
2022-10-18T18:13:47.682Z,66.78
2022-10-18T18:16:19.365Z,83.45
2022-10-18T18:18:49.263Z,85.38
2022-10-18T18:21:17.461Z,78.45
2022-10-18T18:23:47.116Z,71.25
2022-10-18T18:26:16.005Z,64.32
2022-10-18T18:28:45.208Z,66.47
2022-10-18T18:31:18.394Z,63.15
2022-10-18T18:33:46.796Z,52.33
2022-10-18T18:36:15.624Z,71.43
2022-10-18T18:38:44.715Z,54.55
2022-10-18T18:41:25.791Z,61.55
2022-10-18T18:43:57.009Z,63.78
2022-10-18T18:46:26.079Z,59.95
2022-10-18T18:48:53.629Z,63.72
2022-10-18T18:51:22.985Z,62.33
2022-10-18T18:53:51.246Z,66.43
2022-10-18T18:56:23.058Z,57.80
2022-10-18T18:58:51.993Z,58.38
2022-10-18T19:01:21.709Z,56.80
2022-10-18T19:03:53.091Z,57.92
2022-10-18T19:06:27.293Z,46.72
2022-10-18T19:09:01.682Z,60.83
2022-10-18T19:11:36.412Z,63.25
2022-10-18T19:14:05.740Z,54.20
2022-10-18T19:16:37.503Z,62.85
2022-10-18T19:19:15.781Z,68.68
2022-10-18T19:21:47.234Z,58.25
2022-10-18T19:24:15.714Z,76.72
2022-10-18T19:26:46.511Z,86.72
2022-10-18T19:29:23.766Z,79.20
2022-10-18T19:31:54.197Z,73.65
2022-10-18T19:34:24.535Z,56.25
2022-10-18T19:36:53.154Z,56.05
2022-10-18T19:39:25.638Z,55.40
2022-10-18T19:41:58.407Z,48.22
2022-10-18T19:44:29.966Z,50.22
2022-10-18T19:46:58.654Z,53.17
2022-10-18T19:49:26.767Z,53.28
2022-10-18T19:51:55.446Z,53.92
2022-10-18T19:54:24.042Z,46.35
2022-10-18T19:56:52.009Z,50.10
2022-10-18T19:59:20.488Z,47.80
2022-10-18T20:01:49.055Z,45.38
2022-10-18T20:04:17.492Z,47.42
2022-10-18T20:06:45.447Z,43.67
2022-10-18T20:09:17.761Z,51.63
2022-10-18T20:11:47.856Z,43.13
2022-10-18T20:14:16.507Z,49.33
2022-10-18T20:16:43.740Z,46.00
2022-10-18T20:19:10.944Z,48.00
2022-10-18T20:21:39.494Z,42.67
2022-10-18T20:24:07.003Z,41.75
2022-10-18T20:26:36.013Z,47.17
2022-10-18T20:29:04.430Z,44.55
2022-10-18T20:31:38.662Z,40.78
2022-10-18T20:34:13.903Z,40.85
2022-10-18T20:36:41.015Z,40.22
2022-10-18T20:39:08.052Z,38.67
2022-10-18T20:41:41.461Z,37.10
2022-10-18T20:44:13.636Z,41.35
2022-10-18T20:46:41.556Z,45.85
2022-10-18T20:49:11.567Z,41.92
2022-10-18T20:51:38.763Z,39.28
2022-10-18T20:54:07.621Z,37.20
2022-10-18T20:56:36.771Z,41.13
2022-10-18T20:59:06.355Z,37.97
2022-10-18T21:01:35.435Z,44.30
2022-10-18T21:04:05.246Z,44.03
2022-10-18T21:06:35.383Z,39.80
2022-10-18T21:09:05.457Z,43.20
2022-10-18T21:11:37.011Z,37.97
2022-10-18T21:14:04.577Z,39.92
2022-10-18T21:16:34.632Z,41.47
2022-10-18T21:19:03.776Z,42.50
2022-10-18T21:21:31.312Z,39.20
2022-10-18T21:23:58.971Z,39.75
2022-10-18T21:26:29.012Z,39.95
2022-10-18T21:28:58.726Z,33.25
2022-10-18T21:31:31.107Z,43.42
2022-10-18T21:34:00.867Z,44.10
2022-10-18T21:36:33.068Z,37.65
2022-10-18T21:39:00.235Z,41.95
2022-10-18T21:41:27.504Z,38.25
2022-10-18T21:43:55.411Z,38.80
2022-10-18T21:46:24.385Z,37.80
2022-10-18T21:48:52.820Z,46.90
2022-10-18T21:51:22.065Z,42.58
2022-10-18T21:53:52.373Z,43.38
2022-10-18T21:56:22.474Z,42.20
2022-10-18T21:58:50.026Z,40.47
2022-10-18T22:01:25.886Z,38.90
2022-10-18T22:03:55.236Z,36.58
2022-10-18T22:06:23.142Z,36.63
2022-10-18T22:08:53.816Z,38.20
2022-10-18T22:11:29.421Z,41.40
2022-10-18T22:13:57.023Z,44.65
2022-10-18T22:16:24.724Z,45.47
2022-10-18T22:18:53.544Z,41.25
2022-10-18T22:21:21.086Z,38.17
2022-10-18T22:23:50.952Z,46.30
2022-10-18T22:26:19.607Z,35.17
2022-10-18T22:28:48.267Z,38.40
2022-10-18T22:31:20.711Z,48.38
2022-10-18T22:33:57.056Z,38.55
2022-10-18T22:36:25.335Z,32.72
2022-10-18T22:38:52.494Z,34.30
2022-10-18T22:41:20.222Z,34.97
2022-10-18T22:43:50.060Z,36.90
2022-10-18T22:46:18.227Z,35.03
2022-10-18T22:48:45.575Z,35.88
2022-10-18T22:51:13.283Z,39.03
2022-10-18T22:53:41.150Z,41.80
2022-10-18T22:56:11.771Z,31.95
2022-10-18T22:58:38.832Z,29.77
2022-10-18T23:01:11.636Z,30.17
2022-10-18T23:03:39.563Z,32.25
2022-10-18T23:06:24.676Z,26.23
2022-10-18T23:08:53.978Z,30.98
2022-10-18T23:11:21.072Z,26.10
2022-10-18T23:13:48.030Z,23.88
2022-10-18T23:16:15.486Z,21.63
2022-10-18T23:18:42.446Z,20.73
2022-10-18T23:21:13.616Z,17.45
2022-10-18T23:23:42.899Z,15.88
2022-10-18T23:26:12.854Z,14.02
2022-10-18T23:28:42.360Z,13.25
2022-10-18T23:31:12.995Z,14.00
2022-10-18T23:33:40.835Z,15.57
2022-10-18T23:36:08.670Z,11.75
2022-10-18T23:38:39.087Z,11.90
2022-10-18T23:41:07.476Z,11.48
2022-10-18T23:43:34.690Z,11.55
2022-10-18T23:46:02.168Z,11.93
2022-10-18T23:48:29.299Z,11.35
2022-10-18T23:50:56.405Z,14.20
2022-10-18T23:53:24.063Z,11.35
2022-10-18T23:55:56.626Z,11.70
2022-10-18T23:58:25.040Z,16.30
